sensor_id;sensor_type;location;lat;lon;timestamp;temperature;humidity
42199;DHT22;27868;45.184;5.786;2023-02-17T00:01:00;7.30;76.90
42199;DHT22;27868;45.184;5.786;2023-02-17T00:03:44;7.40;77.00
42199;DHT22;27868;45.184;5.786;2023-02-17T00:06:32;7.30;77.10
42199;DHT22;27868;45.184;5.786;2023-02-17T00:09:16;7.30;77.10
42199;DHT22;27868;45.184;5.786;2023-02-17T00:12:01;7.20;77.10
42199;DHT22;27868;45.184;5.786;2023-02-17T00:14:46;7.20;77.20
42199;DHT22;27868;45.184;5.786;2023-02-17T00:17:30;7.20;77.40
42199;DHT22;27868;45.184;5.786;2023-02-17T00:20:15;7.20;77.50
42199;DHT22;27868;45.184;5.786;2023-02-17T00:23:00;7.10;77.50
42199;DHT22;27868;45.184;5.786;2023-02-17T00:25:45;7.10;77.50
42199;DHT22;27868;45.184;5.786;2023-02-17T00:28:30;7.00;77.40
42199;DHT22;27868;45.184;5.786;2023-02-17T00:31:22;7.00;77.40
42199;DHT22;27868;45.184;5.786;2023-02-17T00:34:07;7.00;77.70
42199;DHT22;27868;45.184;5.786;2023-02-17T00:36:52;7.00;77.80
42199;DHT22;27868;45.184;5.786;2023-02-17T00:39:37;6.90;77.70
42199;DHT22;27868;45.184;5.786;2023-02-17T00:42:22;6.90;77.70
42199;DHT22;27868;45.184;5.786;2023-02-17T00:45:07;6.90;77.90
42199;DHT22;27868;45.184;5.786;2023-02-17T00:47:52;6.90;78.20
42199;DHT22;27868;45.184;5.786;2023-02-17T00:50:37;6.80;78.50
42199;DHT22;27868;45.184;5.786;2023-02-17T00:53:22;6.80;78.70
42199;DHT22;27868;45.184;5.786;2023-02-17T00:56:07;6.80;78.80
42199;DHT22;27868;45.184;5.786;2023-02-17T00:58:52;6.80;78.80
42199;DHT22;27868;45.184;5.786;2023-02-17T01:01:37;6.80;78.90
42199;DHT22;27868;45.184;5.786;2023-02-17T01:04:22;6.70;78.90
42199;DHT22;27868;45.184;5.786;2023-02-17T01:07:07;6.70;78.90
42199;DHT22;27868;45.184;5.786;2023-02-17T01:09:53;6.70;79.40
42199;DHT22;27868;45.184;5.786;2023-02-17T01:12:38;6.60;78.90
42199;DHT22;27868;45.184;5.786;2023-02-17T01:15:22;6.60;78.90
42199;DHT22;27868;45.184;5.786;2023-02-17T01:18:07;6.60;79.00
42199;DHT22;27868;45.184;5.786;2023-02-17T01:20:52;6.60;79.00
42199;DHT22;27868;45.184;5.786;2023-02-17T01:23:38;6.60;79.00
42199;DHT22;27868;45.184;5.786;2023-02-17T01:26:25;6.50;79.10
42199;DHT22;27868;45.184;5.786;2023-02-17T01:29:10;6.50;79.50
42199;DHT22;27868;45.184;5.786;2023-02-17T01:31:55;6.50;79.70
42199;DHT22;27868;45.184;5.786;2023-02-17T01:34:40;6.40;79.70
42199;DHT22;27868;45.184;5.786;2023-02-17T01:37:25;6.50;79.80
42199;DHT22;27868;45.184;5.786;2023-02-17T01:40:12;6.50;79.90
42199;DHT22;27868;45.184;5.786;2023-02-17T01:42:57;6.50;79.90
42199;DHT22;27868;45.184;5.786;2023-02-17T01:45:55;6.50;80.10
42199;DHT22;27868;45.184;5.786;2023-02-17T01:48:45;6.40;80.20
42199;DHT22;27868;45.184;5.786;2023-02-17T01:51:35;6.50;80.50
42199;DHT22;27868;45.184;5.786;2023-02-17T01:54:27;6.40;80.40
42199;DHT22;27868;45.184;5.786;2023-02-17T01:57:15;6.40;80.30
42199;DHT22;27868;45.184;5.786;2023-02-17T02:00:03;6.40;80.30
42199;DHT22;27868;45.184;5.786;2023-02-17T02:02:49;6.40;80.50
42199;DHT22;27868;45.184;5.786;2023-02-17T02:05:35;6.40;80.70
42199;DHT22;27868;45.184;5.786;2023-02-17T02:08:21;6.40;80.70
42199;DHT22;27868;45.184;5.786;2023-02-17T02:11:06;6.30;80.70
42199;DHT22;27868;45.184;5.786;2023-02-17T02:13:50;6.30;80.80
42199;DHT22;27868;45.184;5.786;2023-02-17T02:20:35;6.30;80.70
42199;DHT22;27868;45.184;5.786;2023-02-17T02:27:09;6.20;80.50
42199;DHT22;27868;45.184;5.786;2023-02-17T02:32:58;6.10;80.20
42199;DHT22;27868;45.184;5.786;2023-02-17T02:35:51;6.10;80.10
42199;DHT22;27868;45.184;5.786;2023-02-17T02:38:57;6.10;80.00
42199;DHT22;27868;45.184;5.786;2023-02-17T02:41:46;6.10;80.10
42199;DHT22;27868;45.184;5.786;2023-02-17T02:44:33;6.00;80.10
42199;DHT22;27868;45.184;5.786;2023-02-17T02:47:52;6.00;80.00
42199;DHT22;27868;45.184;5.786;2023-02-17T02:56:36;5.90;80.10
42199;DHT22;27868;45.184;5.786;2023-02-17T03:02:37;5.90;80.20
42199;DHT22;27868;45.184;5.786;2023-02-17T03:05:41;5.80;80.20
42199;DHT22;27868;45.184;5.786;2023-02-17T03:08:43;5.80;80.30
42199;DHT22;27868;45.184;5.786;2023-02-17T03:11:29;5.80;80.30
42199;DHT22;27868;45.184;5.786;2023-02-17T03:14:19;5.80;80.30
42199;DHT22;27868;45.184;5.786;2023-02-17T03:17:04;5.80;80.30
42199;DHT22;27868;45.184;5.786;2023-02-17T03:19:48;5.70;80.20
42199;DHT22;27868;45.184;5.786;2023-02-17T03:22:39;5.70;80.30
42199;DHT22;27868;45.184;5.786;2023-02-17T03:25:24;5.70;80.30
42199;DHT22;27868;45.184;5.786;2023-02-17T03:28:10;5.70;80.40
42199;DHT22;27868;45.184;5.786;2023-02-17T03:30:55;5.70;80.70
42199;DHT22;27868;45.184;5.786;2023-02-17T03:33:39;5.70;81.00
42199;DHT22;27868;45.184;5.786;2023-02-17T03:36:24;5.70;80.90
42199;DHT22;27868;45.184;5.786;2023-02-17T03:39:09;5.70;80.90
42199;DHT22;27868;45.184;5.786;2023-02-17T03:41:53;5.60;81.00
42199;DHT22;27868;45.184;5.786;2023-02-17T03:44:38;5.60;81.40
42199;DHT22;27868;45.184;5.786;2023-02-17T03:47:22;5.70;81.60
42199;DHT22;27868;45.184;5.786;2023-02-17T03:50:07;5.60;81.50
42199;DHT22;27868;45.184;5.786;2023-02-17T03:52:52;5.60;82.10
42199;DHT22;27868;45.184;5.786;2023-02-17T03:55:37;5.60;81.40
42199;DHT22;27868;45.184;5.786;2023-02-17T03:58:21;5.60;81.20
42199;DHT22;27868;45.184;5.786;2023-02-17T04:01:07;5.50;81.30
42199;DHT22;27868;45.184;5.786;2023-02-17T04:03:52;5.50;81.40
42199;DHT22;27868;45.184;5.786;2023-02-17T04:06:37;5.50;81.50
42199;DHT22;27868;45.184;5.786;2023-02-17T04:09:21;5.50;81.60
42199;DHT22;27868;45.184;5.786;2023-02-17T04:12:06;5.50;81.70
42199;DHT22;27868;45.184;5.786;2023-02-17T04:14:51;5.50;81.70
42199;DHT22;27868;45.184;5.786;2023-02-17T04:17:36;5.40;81.90
42199;DHT22;27868;45.184;5.786;2023-02-17T04:20:22;5.40;82.20
42199;DHT22;27868;45.184;5.786;2023-02-17T04:23:07;5.50;82.40
42199;DHT22;27868;45.184;5.786;2023-02-17T04:25:52;5.50;82.20
42199;DHT22;27868;45.184;5.786;2023-02-17T04:28:38;5.40;82.10
42199;DHT22;27868;45.184;5.786;2023-02-17T04:31:23;5.40;81.90
42199;DHT22;27868;45.184;5.786;2023-02-17T04:34:09;5.40;81.80
42199;DHT22;27868;45.184;5.786;2023-02-17T04:36:53;5.40;81.70
42199;DHT22;27868;45.184;5.786;2023-02-17T04:39:37;5.40;81.70
42199;DHT22;27868;45.184;5.786;2023-02-17T04:42:22;5.40;81.90
42199;DHT22;27868;45.184;5.786;2023-02-17T04:45:07;5.40;82.10
42199;DHT22;27868;45.184;5.786;2023-02-17T04:47:52;5.30;82.00
42199;DHT22;27868;45.184;5.786;2023-02-17T04:50:37;5.30;81.90
42199;DHT22;27868;45.184;5.786;2023-02-17T04:53:21;5.20;81.70
42199;DHT22;27868;45.184;5.786;2023-02-17T04:56:06;5.30;81.80
42199;DHT22;27868;45.184;5.786;2023-02-17T04:58:50;5.30;82.00
42199;DHT22;27868;45.184;5.786;2023-02-17T05:01:35;5.30;82.10
42199;DHT22;27868;45.184;5.786;2023-02-17T05:04:19;5.30;82.20
42199;DHT22;27868;45.184;5.786;2023-02-17T05:07:04;5.30;82.30
42199;DHT22;27868;45.184;5.786;2023-02-17T05:09:48;5.20;82.20
42199;DHT22;27868;45.184;5.786;2023-02-17T05:12:33;5.20;82.20
42199;DHT22;27868;45.184;5.786;2023-02-17T05:15:18;5.20;82.60
42199;DHT22;27868;45.184;5.786;2023-02-17T05:18:04;5.30;81.80
42199;DHT22;27868;45.184;5.786;2023-02-17T05:20:48;5.20;81.70
42199;DHT22;27868;45.184;5.786;2023-02-17T05:23:33;5.20;81.60
42199;DHT22;27868;45.184;5.786;2023-02-17T05:26:25;5.10;81.60
42199;DHT22;27868;45.184;5.786;2023-02-17T05:29:11;5.20;81.60
42199;DHT22;27868;45.184;5.786;2023-02-17T05:31:55;5.10;81.60
42199;DHT22;27868;45.184;5.786;2023-02-17T05:34:40;5.10;81.70
42199;DHT22;27868;45.184;5.786;2023-02-17T05:37:25;5.10;81.80
42199;DHT22;27868;45.184;5.786;2023-02-17T05:40:11;5.00;81.70
42199;DHT22;27868;45.184;5.786;2023-02-17T05:42:55;5.00;81.80
42199;DHT22;27868;45.184;5.786;2023-02-17T05:45:40;5.00;82.40
42199;DHT22;27868;45.184;5.786;2023-02-17T05:48:24;5.00;81.80
42199;DHT22;27868;45.184;5.786;2023-02-17T05:51:08;5.00;81.80
42199;DHT22;27868;45.184;5.786;2023-02-17T05:53:53;5.00;81.70
42199;DHT22;27868;45.184;5.786;2023-02-17T05:56:38;5.00;82.30
42199;DHT22;27868;45.184;5.786;2023-02-17T05:59:23;4.90;81.80
42199;DHT22;27868;45.184;5.786;2023-02-17T06:02:08;4.90;82.30
42199;DHT22;27868;45.184;5.786;2023-02-17T06:04:52;4.90;82.30
42199;DHT22;27868;45.184;5.786;2023-02-17T06:07:37;4.90;82.30
42199;DHT22;27868;45.184;5.786;2023-02-17T06:10:22;4.90;82.30
42199;DHT22;27868;45.184;5.786;2023-02-17T06:13:06;4.90;83.00
42199;DHT22;27868;45.184;5.786;2023-02-17T06:15:51;5.00;82.40
42199;DHT22;27868;45.184;5.786;2023-02-17T06:18:36;4.90;82.40
42199;DHT22;27868;45.184;5.786;2023-02-17T06:21:21;4.90;82.20
42199;DHT22;27868;45.184;5.786;2023-02-17T06:24:06;4.90;82.20
42199;DHT22;27868;45.184;5.786;2023-02-17T06:26:50;4.80;82.30
42199;DHT22;27868;45.184;5.786;2023-02-17T06:29:35;4.80;82.20
42199;DHT22;27868;45.184;5.786;2023-02-17T06:32:20;4.80;82.40
42199;DHT22;27868;45.184;5.786;2023-02-17T06:35:04;4.80;82.50
42199;DHT22;27868;45.184;5.786;2023-02-17T06:37:49;4.80;82.60
42199;DHT22;27868;45.184;5.786;2023-02-17T06:40:34;4.80;82.70
42199;DHT22;27868;45.184;5.786;2023-02-17T06:43:18;4.80;82.90
42199;DHT22;27868;45.184;5.786;2023-02-17T06:46:03;4.80;82.70
42199;DHT22;27868;45.184;5.786;2023-02-17T06:48:48;4.80;82.60
42199;DHT22;27868;45.184;5.786;2023-02-17T06:51:32;4.70;82.70
42199;DHT22;27868;45.184;5.786;2023-02-17T06:54:17;4.80;82.80
42199;DHT22;27868;45.184;5.786;2023-02-17T06:57:01;4.80;83.00
42199;DHT22;27868;45.184;5.786;2023-02-17T06:59:46;4.70;82.90
42199;DHT22;27868;45.184;5.786;2023-02-17T07:02:30;4.70;82.80
42199;DHT22;27868;45.184;5.786;2023-02-17T07:05:15;4.80;83.00
42199;DHT22;27868;45.184;5.786;2023-02-17T07:08:01;4.70;83.00
42199;DHT22;27868;45.184;5.786;2023-02-17T07:10:45;4.70;83.20
42199;DHT22;27868;45.184;5.786;2023-02-17T07:13:30;4.70;83.20
42199;DHT22;27868;45.184;5.786;2023-02-17T07:16:15;4.70;83.10
42199;DHT22;27868;45.184;5.786;2023-02-17T07:19:00;4.60;83.20
42199;DHT22;27868;45.184;5.786;2023-02-17T07:21:45;4.70;83.40
42199;DHT22;27868;45.184;5.786;2023-02-17T07:24:29;4.70;83.50
42199;DHT22;27868;45.184;5.786;2023-02-17T07:27:14;4.70;83.70
42199;DHT22;27868;45.184;5.786;2023-02-17T07:29:59;4.70;83.80
42199;DHT22;27868;45.184;5.786;2023-02-17T07:32:43;4.70;83.90
42199;DHT22;27868;45.184;5.786;2023-02-17T07:35:28;4.70;84.00
42199;DHT22;27868;45.184;5.786;2023-02-17T07:38:13;4.70;84.20
42199;DHT22;27868;45.184;5.786;2023-02-17T07:41:03;4.70;84.40
42199;DHT22;27868;45.184;5.786;2023-02-17T07:43:51;4.70;84.50
42199;DHT22;27868;45.184;5.786;2023-02-17T07:46:36;4.70;84.40
42199;DHT22;27868;45.184;5.786;2023-02-17T07:49:23;4.70;84.40
42199;DHT22;27868;45.184;5.786;2023-02-17T07:52:08;4.70;84.40
42199;DHT22;27868;45.184;5.786;2023-02-17T07:54:52;4.80;84.60
42199;DHT22;27868;45.184;5.786;2023-02-17T07:57:37;4.80;84.80
42199;DHT22;27868;45.184;5.786;2023-02-17T08:00:21;4.80;85.00
42199;DHT22;27868;45.184;5.786;2023-02-17T08:03:06;4.80;85.20
42199;DHT22;27868;45.184;5.786;2023-02-17T08:05:50;4.80;85.30
42199;DHT22;27868;45.184;5.786;2023-02-17T08:08:36;4.80;85.50
42199;DHT22;27868;45.184;5.786;2023-02-17T08:11:40;4.80;86.30
42199;DHT22;27868;45.184;5.786;2023-02-17T08:14:44;4.80;85.90
42199;DHT22;27868;45.184;5.786;2023-02-17T08:17:29;4.80;86.00
42199;DHT22;27868;45.184;5.786;2023-02-17T08:20:13;4.80;86.00
42199;DHT22;27868;45.184;5.786;2023-02-17T08:22:59;4.90;86.10
42199;DHT22;27868;45.184;5.786;2023-02-17T08:25:44;4.90;86.10
42199;DHT22;27868;45.184;5.786;2023-02-17T08:28:29;4.90;86.20
42199;DHT22;27868;45.184;5.786;2023-02-17T08:31:25;4.90;86.30
42199;DHT22;27868;45.184;5.786;2023-02-17T08:34:13;5.00;86.60
42199;DHT22;27868;45.184;5.786;2023-02-17T08:36:59;5.00;86.60
42199;DHT22;27868;45.184;5.786;2023-02-17T08:39:44;5.00;86.70
42199;DHT22;27868;45.184;5.786;2023-02-17T08:42:31;5.00;86.90
42199;DHT22;27868;45.184;5.786;2023-02-17T08:45:16;5.10;87.00
42199;DHT22;27868;45.184;5.786;2023-02-17T08:48:02;5.20;87.10
42199;DHT22;27868;45.184;5.786;2023-02-17T08:50:47;5.20;87.10
42199;DHT22;27868;45.184;5.786;2023-02-17T08:53:33;5.20;87.20
42199;DHT22;27868;45.184;5.786;2023-02-17T08:56:18;5.20;87.20
42199;DHT22;27868;45.184;5.786;2023-02-17T08:59:04;5.30;87.40
42199;DHT22;27868;45.184;5.786;2023-02-17T09:01:49;5.20;87.40
42199;DHT22;27868;45.184;5.786;2023-02-17T09:04:34;5.30;87.50
42199;DHT22;27868;45.184;5.786;2023-02-17T09:07:19;5.30;87.50
42199;DHT22;27868;45.184;5.786;2023-02-17T09:10:05;5.30;87.60
42199;DHT22;27868;45.184;5.786;2023-02-17T09:12:50;5.40;87.70
42199;DHT22;27868;45.184;5.786;2023-02-17T09:15:35;5.30;88.80
42199;DHT22;27868;45.184;5.786;2023-02-17T09:18:21;5.30;88.40
42199;DHT22;27868;45.184;5.786;2023-02-17T09:21:07;5.50;88.40
42199;DHT22;27868;45.184;5.786;2023-02-17T09:23:52;5.50;88.50
42199;DHT22;27868;45.184;5.786;2023-02-17T09:26:37;5.60;88.60
42199;DHT22;27868;45.184;5.786;2023-02-17T09:29:22;5.60;88.60
42199;DHT22;27868;45.184;5.786;2023-02-17T09:32:07;5.70;88.80
42199;DHT22;27868;45.184;5.786;2023-02-17T09:34:53;5.70;88.70
42199;DHT22;27868;45.184;5.786;2023-02-17T09:37:38;5.70;88.80
42199;DHT22;27868;45.184;5.786;2023-02-17T09:40:31;5.80;88.90
42199;DHT22;27868;45.184;5.786;2023-02-17T09:43:25;5.90;88.90
42199;DHT22;27868;45.184;5.786;2023-02-17T09:49:05;6.00;89.00
42199;DHT22;27868;45.184;5.786;2023-02-17T09:52:13;6.10;89.10
42199;DHT22;27868;45.184;5.786;2023-02-17T09:58:11;6.20;88.70
42199;DHT22;27868;45.184;5.786;2023-02-17T10:01:00;6.20;88.60
42199;DHT22;27868;45.184;5.786;2023-02-17T10:03:53;6.30;88.40
42199;DHT22;27868;45.184;5.786;2023-02-17T10:06:43;6.40;88.00
42199;DHT22;27868;45.184;5.786;2023-02-17T10:09:36;6.40;87.40
42199;DHT22;27868;45.184;5.786;2023-02-17T10:12:29;6.50;87.20
42199;DHT22;27868;45.184;5.786;2023-02-17T10:15:24;6.50;87.10
42199;DHT22;27868;45.184;5.786;2023-02-17T10:18:16;6.60;86.90
42199;DHT22;27868;45.184;5.786;2023-02-17T10:21:18;6.70;86.40
42199;DHT22;27868;45.184;5.786;2023-02-17T10:24:07;6.70;85.70
42199;DHT22;27868;45.184;5.786;2023-02-17T10:30:23;6.80;84.40
42199;DHT22;27868;45.184;5.786;2023-02-17T10:33:33;6.90;84.10
42199;DHT22;27868;45.184;5.786;2023-02-17T10:42:37;7.10;82.20
42199;DHT22;27868;45.184;5.786;2023-02-17T10:48:17;7.20;77.90
42199;DHT22;27868;45.184;5.786;2023-02-17T10:51:03;7.30;79.10
42199;DHT22;27868;45.184;5.786;2023-02-17T10:56:47;7.40;79.20
42199;DHT22;27868;45.184;5.786;2023-02-17T10:59:40;7.50;77.80
42199;DHT22;27868;45.184;5.786;2023-02-17T11:02:40;7.50;75.60
42199;DHT22;27868;45.184;5.786;2023-02-17T11:05:33;7.60;77.20
42199;DHT22;27868;45.184;5.786;2023-02-17T11:11:34;7.80;76.40
42199;DHT22;27868;45.184;5.786;2023-02-17T11:14:25;7.80;77.50
42199;DHT22;27868;45.184;5.786;2023-02-17T11:26:17;8.00;77.00
42199;DHT22;27868;45.184;5.786;2023-02-17T11:29:20;8.10;76.90
42199;DHT22;27868;45.184;5.786;2023-02-17T11:32:09;8.20;75.80
42199;DHT22;27868;45.184;5.786;2023-02-17T11:34:57;8.20;76.20
42199;DHT22;27868;45.184;5.786;2023-02-17T11:37:44;8.40;74.90
42199;DHT22;27868;45.184;5.786;2023-02-17T11:40:31;8.40;75.20
42199;DHT22;27868;45.184;5.786;2023-02-17T11:43:16;8.70;71.70
42199;DHT22;27868;45.184;5.786;2023-02-17T11:52:04;8.90;72.60
42199;DHT22;27868;45.184;5.786;2023-02-17T11:58:04;9.00;72.80
42199;DHT22;27868;45.184;5.786;2023-02-17T12:04:27;9.10;72.60
42199;DHT22;27868;45.184;5.786;2023-02-17T12:10:21;9.20;71.30
42199;DHT22;27868;45.184;5.786;2023-02-17T12:19:39;9.50;69.60
42199;DHT22;27868;45.184;5.786;2023-02-17T12:25:38;9.70;67.70
42199;DHT22;27868;45.184;5.786;2023-02-17T12:31:47;9.80;67.40
42199;DHT22;27868;45.184;5.786;2023-02-17T12:34:39;9.90;68.90
42199;DHT22;27868;45.184;5.786;2023-02-17T12:37:31;10.00;69.00
42199;DHT22;27868;45.184;5.786;2023-02-17T12:40:39;10.10;67.00
42199;DHT22;27868;45.184;5.786;2023-02-17T12:43:35;10.20;67.30
42199;DHT22;27868;45.184;5.786;2023-02-17T12:46:37;10.20;68.20
42199;DHT22;27868;45.184;5.786;2023-02-17T12:49:26;10.30;66.00
42199;DHT22;27868;45.184;5.786;2023-02-17T12:52:21;10.30;67.80
42199;DHT22;27868;45.184;5.786;2023-02-17T12:55:19;10.60;63.50
42199;DHT22;27868;45.184;5.786;2023-02-17T12:58:12;10.60;66.20
42199;DHT22;27868;45.184;5.786;2023-02-17T13:01:08;10.70;65.40
42199;DHT22;27868;45.184;5.786;2023-02-17T13:03:54;10.90;63.40
42199;DHT22;27868;45.184;5.786;2023-02-17T13:06:45;10.90;65.80
42199;DHT22;27868;45.184;5.786;2023-02-17T13:09:36;11.00;65.20
42199;DHT22;27868;45.184;5.786;2023-02-17T13:15:26;11.20;63.40
42199;DHT22;27868;45.184;5.786;2023-02-17T13:27:51;11.60;63.30
42199;DHT22;27868;45.184;5.786;2023-02-17T13:33:27;11.70;63.80
42199;DHT22;27868;45.184;5.786;2023-02-17T13:36:17;11.80;62.50
42199;DHT22;27868;45.184;5.786;2023-02-17T13:42:39;12.00;63.70
42199;DHT22;27868;45.184;5.786;2023-02-17T13:45:32;12.10;62.60
42199;DHT22;27868;45.184;5.786;2023-02-17T13:51:06;12.30;62.90
42199;DHT22;27868;45.184;5.786;2023-02-17T13:53:53;12.40;62.50
42199;DHT22;27868;45.184;5.786;2023-02-17T13:56:38;12.40;63.20
42199;DHT22;27868;45.184;5.786;2023-02-17T13:59:25;12.50;63.30
42199;DHT22;27868;45.184;5.786;2023-02-17T14:02:18;12.60;62.90
42199;DHT22;27868;45.184;5.786;2023-02-17T14:05:36;12.70;62.80
42199;DHT22;27868;45.184;5.786;2023-02-17T14:08:33;12.70;62.50
42199;DHT22;27868;45.184;5.786;2023-02-17T14:11:24;12.80;62.60
42199;DHT22;27868;45.184;5.786;2023-02-17T14:14:10;12.90;62.40
42199;DHT22;27868;45.184;5.786;2023-02-17T14:17:02;12.90;62.90
42199;DHT22;27868;45.184;5.786;2023-02-17T14:19:48;12.90;62.50
42199;DHT22;27868;45.184;5.786;2023-02-17T14:22:34;13.00;61.50
42199;DHT22;27868;45.184;5.786;2023-02-17T14:25:27;13.10;61.40
42199;DHT22;27868;45.184;5.786;2023-02-17T14:28:18;13.10;61.50
42199;DHT22;27868;45.184;5.786;2023-02-17T14:31:18;13.20;61.40
42199;DHT22;27868;45.184;5.786;2023-02-17T14:34:04;13.20;61.60
42199;DHT22;27868;45.184;5.786;2023-02-17T14:36:49;13.40;60.60
42199;DHT22;27868;45.184;5.786;2023-02-17T14:39:33;13.30;61.40
42199;DHT22;27868;45.184;5.786;2023-02-17T14:42:18;13.40;61.80
42199;DHT22;27868;45.184;5.786;2023-02-17T14:45:03;13.40;61.20
42199;DHT22;27868;45.184;5.786;2023-02-17T14:47:48;13.40;62.10
42199;DHT22;27868;45.184;5.786;2023-02-17T14:50:33;13.50;61.90
42199;DHT22;27868;45.184;5.786;2023-02-17T14:53:28;13.50;61.80
42199;DHT22;27868;45.184;5.786;2023-02-17T14:56:34;13.50;62.00
42199;DHT22;27868;45.184;5.786;2023-02-17T14:59:20;13.60;61.10
42199;DHT22;27868;45.184;5.786;2023-02-17T15:02:15;13.60;61.60
42199;DHT22;27868;45.184;5.786;2023-02-17T15:05:01;13.60;61.20
42199;DHT22;27868;45.184;5.786;2023-02-17T15:07:46;13.70;61.40
42199;DHT22;27868;45.184;5.786;2023-02-17T15:10:31;13.70;61.30
42199;DHT22;27868;45.184;5.786;2023-02-17T15:13:19;13.70;61.10
42199;DHT22;27868;45.184;5.786;2023-02-17T15:16:04;13.70;61.10
42199;DHT22;27868;45.184;5.786;2023-02-17T15:18:50;13.70;61.30
42199;DHT22;27868;45.184;5.786;2023-02-17T15:21:36;13.70;61.40
42199;DHT22;27868;45.184;5.786;2023-02-17T15:24:24;13.70;61.30
42199;DHT22;27868;45.184;5.786;2023-02-17T15:27:13;13.70;61.40
42199;DHT22;27868;45.184;5.786;2023-02-17T15:29:58;13.70;61.90
42199;DHT22;27868;45.184;5.786;2023-02-17T15:32:42;13.70;61.70
42199;DHT22;27868;45.184;5.786;2023-02-17T15:35:28;13.70;61.80
42199;DHT22;27868;45.184;5.786;2023-02-17T15:38:13;13.70;61.80
42199;DHT22;27868;45.184;5.786;2023-02-17T15:40:59;13.70;62.00
42199;DHT22;27868;45.184;5.786;2023-02-17T15:43:46;13.70;62.10
42199;DHT22;27868;45.184;5.786;2023-02-17T15:46:32;13.70;61.90
42199;DHT22;27868;45.184;5.786;2023-02-17T15:49:26;13.70;62.20
42199;DHT22;27868;45.184;5.786;2023-02-17T17:17:51;12.90;65.60
42199;DHT22;27868;45.184;5.786;2023-02-17T17:20:38;12.90;65.50
42199;DHT22;27868;45.184;5.786;2023-02-17T17:23:22;12.90;65.70
42199;DHT22;27868;45.184;5.786;2023-02-17T17:29:18;12.80;65.90
42199;DHT22;27868;45.184;5.786;2023-02-17T17:32:03;12.70;66.00
42199;DHT22;27868;45.184;5.786;2023-02-17T17:34:48;12.70;66.10
42199;DHT22;27868;45.184;5.786;2023-02-17T17:37:35;12.70;66.40
42199;DHT22;27868;45.184;5.786;2023-02-17T17:40:24;12.60;66.40
42199;DHT22;27868;45.184;5.786;2023-02-17T17:43:09;12.60;66.50
42199;DHT22;27868;45.184;5.786;2023-02-17T17:45:54;12.50;66.60
42199;DHT22;27868;45.184;5.786;2023-02-17T17:48:39;12.50;66.70
42199;DHT22;27868;45.184;5.786;2023-02-17T17:51:26;12.50;66.80
42199;DHT22;27868;45.184;5.786;2023-02-17T17:54:11;12.50;67.10
42199;DHT22;27868;45.184;5.786;2023-02-17T17:56:56;12.50;67.30
42199;DHT22;27868;45.184;5.786;2023-02-17T17:59:40;12.50;67.40
42199;DHT22;27868;45.184;5.786;2023-02-17T18:02:25;12.40;67.20
42199;DHT22;27868;45.184;5.786;2023-02-17T18:05:10;12.40;67.20
42199;DHT22;27868;45.184;5.786;2023-02-17T18:07:56;12.40;67.20
42199;DHT22;27868;45.184;5.786;2023-02-17T18:10:41;12.40;67.20
42199;DHT22;27868;45.184;5.786;2023-02-17T18:13:26;12.40;67.20
42199;DHT22;27868;45.184;5.786;2023-02-17T18:16:12;12.40;67.20
42199;DHT22;27868;45.184;5.786;2023-02-17T18:18:58;12.30;67.20
42199;DHT22;27868;45.184;5.786;2023-02-17T18:21:44;12.30;67.30
42199;DHT22;27868;45.184;5.786;2023-02-17T18:24:30;12.30;67.40
42199;DHT22;27868;45.184;5.786;2023-02-17T18:27:14;12.30;67.50
42199;DHT22;27868;45.184;5.786;2023-02-17T18:30:00;12.20;67.60
42199;DHT22;27868;45.184;5.786;2023-02-17T18:32:46;12.20;67.80
42199;DHT22;27868;45.184;5.786;2023-02-17T18:35:36;12.20;67.80
42199;DHT22;27868;45.184;5.786;2023-02-17T18:38:22;12.20;67.90
42199;DHT22;27868;45.184;5.786;2023-02-17T18:41:07;12.10;67.90
42199;DHT22;27868;45.184;5.786;2023-02-17T18:43:52;12.10;68.10
42199;DHT22;27868;45.184;5.786;2023-02-17T18:46:37;12.10;68.10
42199;DHT22;27868;45.184;5.786;2023-02-17T18:49:23;12.00;68.20
42199;DHT22;27868;45.184;5.786;2023-02-17T18:52:07;12.00;68.30
42199;DHT22;27868;45.184;5.786;2023-02-17T18:54:52;11.90;68.40
42199;DHT22;27868;45.184;5.786;2023-02-17T18:57:37;11.90;68.50
42199;DHT22;27868;45.184;5.786;2023-02-17T19:00:22;11.90;68.70
42199;DHT22;27868;45.184;5.786;2023-02-17T19:03:08;11.80;68.90
42199;DHT22;27868;45.184;5.786;2023-02-17T19:05:53;11.80;68.90
42199;DHT22;27868;45.184;5.786;2023-02-17T19:08:38;11.80;69.10
42199;DHT22;27868;45.184;5.786;2023-02-17T19:11:25;11.80;69.20
42199;DHT22;27868;45.184;5.786;2023-02-17T19:14:09;11.70;69.30
42199;DHT22;27868;45.184;5.786;2023-02-17T19:16:55;11.70;69.30
42199;DHT22;27868;45.184;5.786;2023-02-17T19:19:40;11.70;69.50
42199;DHT22;27868;45.184;5.786;2023-02-17T19:22:25;11.60;69.40
42199;DHT22;27868;45.184;5.786;2023-02-17T19:25:10;11.60;69.50
42199;DHT22;27868;45.184;5.786;2023-02-17T19:27:54;11.60;69.70
42199;DHT22;27868;45.184;5.786;2023-02-17T19:30:39;11.60;70.00
42199;DHT22;27868;45.184;5.786;2023-02-17T19:33:26;11.50;69.90
42199;DHT22;27868;45.184;5.786;2023-02-17T19:36:16;11.50;69.90
42199;DHT22;27868;45.184;5.786;2023-02-17T19:39:01;11.50;70.10
42199;DHT22;27868;45.184;5.786;2023-02-17T19:41:46;11.50;70.30
42199;DHT22;27868;45.184;5.786;2023-02-17T19:44:31;11.50;70.50
42199;DHT22;27868;45.184;5.786;2023-02-17T19:47:16;11.50;70.60
42199;DHT22;27868;45.184;5.786;2023-02-17T19:50:00;11.40;70.70
42199;DHT22;27868;45.184;5.786;2023-02-17T19:52:45;11.40;70.80
42199;DHT22;27868;45.184;5.786;2023-02-17T19:55:30;11.50;71.00
42199;DHT22;27868;45.184;5.786;2023-02-17T19:58:14;11.50;71.10
42199;DHT22;27868;45.184;5.786;2023-02-17T20:01:04;11.40;71.10
42199;DHT22;27868;45.184;5.786;2023-02-17T20:03:50;11.40;71.20
42199;DHT22;27868;45.184;5.786;2023-02-17T20:06:43;11.50;71.30
42199;DHT22;27868;45.184;5.786;2023-02-17T20:09:29;11.50;71.30
42199;DHT22;27868;45.184;5.786;2023-02-17T20:12:14;11.40;71.30
42199;DHT22;27868;45.184;5.786;2023-02-17T20:14:58;11.40;71.30
42199;DHT22;27868;45.184;5.786;2023-02-17T20:17:45;11.40;71.20
42199;DHT22;27868;45.184;5.786;2023-02-17T20:20:29;11.40;71.00
42199;DHT22;27868;45.184;5.786;2023-02-17T20:23:14;11.30;71.70
42199;DHT22;27868;45.184;5.786;2023-02-17T20:26:04;11.30;71.10
42199;DHT22;27868;45.184;5.786;2023-02-17T20:28:50;11.30;71.30
42199;DHT22;27868;45.184;5.786;2023-02-17T20:31:36;11.20;71.40
42199;DHT22;27868;45.184;5.786;2023-02-17T20:34:33;11.20;71.40
42199;DHT22;27868;45.184;5.786;2023-02-17T20:37:19;11.20;71.40
42199;DHT22;27868;45.184;5.786;2023-02-17T20:40:04;11.10;71.30
42199;DHT22;27868;45.184;5.786;2023-02-17T20:42:49;11.10;71.40
42199;DHT22;27868;45.184;5.786;2023-02-17T20:45:35;11.00;71.60
42199;DHT22;27868;45.184;5.786;2023-02-17T20:48:20;11.00;71.80
42199;DHT22;27868;45.184;5.786;2023-02-17T20:51:10;10.90;71.80
42199;DHT22;27868;45.184;5.786;2023-02-17T20:53:55;10.90;71.90
42199;DHT22;27868;45.184;5.786;2023-02-17T20:56:42;10.90;72.10
42199;DHT22;27868;45.184;5.786;2023-02-17T20:59:28;10.80;72.30